SWR23E EDDH-LSZH
Flight info
| Callsign | SWR23E |
|---|---|
| Flight time | N/A |
| Altitude | 33000 |
| Route | IDEKO8C IDEKO N850 PIROT/N0444F350 N850 XAROL DCT SWALM/N0445F340 DCT OMOGI/N0450F350 T721 LAMGO/N0404F230 T721 RILAX |
| Aircraft | A320/M-SDE3FGHIRWY/LB1 |
Departure
| Time | 2026-02-19 12:35 |
|---|---|
| Airport | Hamburg Helmut Schmidt Airport (EDDH) |
Arrival
| Time | N/A |
|---|---|
| Airport | Zürich Airport (LSZH) |
| Time | Latitude | Longitude | Altitude | Speed | Heading |
|---|---|---|---|---|---|
| 2026-02-19 12:10 | 53.63074 | 10.00378 | 49 ft | 0 kts | 94° |
| 2026-02-19 12:25 | 53.63074 | 10.00376 | 48 ft | 2 kts | 94° |
| 2026-02-19 12:25 | 53.63075 | 10.00348 | 21 ft | 2 kts | 95° |
| 2026-02-19 12:26 | 53.63076 | 10.00320 | 63 ft | 2 kts | 94° |
| 2026-02-19 12:26 | 53.63077 | 10.00293 | 48 ft | 2 kts | 94° |
| 2026-02-19 12:26 | 53.63078 | 10.00265 | 48 ft | 2 kts | 94° |
| 2026-02-19 12:26 | 53.63079 | 10.00237 | 48 ft | 2 kts | 92° |
| 2026-02-19 12:27 | 53.63080 | 10.00209 | 47 ft | 2 kts | 102° |
| 2026-02-19 12:27 | 53.63091 | 10.00196 | 45 ft | 2 kts | 168° |
| 2026-02-19 12:27 | 53.63099 | 10.00192 | 43 ft | 0 kts | 185° |
| 2026-02-19 12:29 | 53.63083 | 10.00188 | 43 ft | 7 kts | 189° |
| 2026-02-19 12:29 | 53.63047 | 10.00155 | 48 ft | 5 kts | 211° |
| 2026-02-19 12:29 | 53.63016 | 10.00124 | 48 ft | 6 kts | 210° |
| 2026-02-19 12:30 | 53.62962 | 10.00068 | 48 ft | 13 kts | 212° |
| 2026-02-19 12:30 | 53.62885 | 10.00037 | 48 ft | 10 kts | 185° |
| 2026-02-19 12:30 | 53.62827 | 9.99984 | 48 ft | 10 kts | 211° |
| 2026-02-19 12:30 | 53.62741 | 9.99902 | 46 ft | 18 kts | 209° |
| 2026-02-19 12:31 | 53.62646 | 9.99786 | 46 ft | 15 kts | 239° |
| 2026-02-19 12:31 | 53.62623 | 9.99628 | 47 ft | 13 kts | 258° |
| 2026-02-19 12:31 | 53.62605 | 9.99471 | 45 ft | 18 kts | 259° |
| 2026-02-19 12:31 | 53.62572 | 9.99172 | 47 ft | 27 kts | 259° |
| 2026-02-19 12:32 | 53.62540 | 9.98897 | 47 ft | 22 kts | 259° |
| 2026-02-19 12:32 | 53.62488 | 9.98428 | 47 ft | 19 kts | 259° |
| 2026-02-19 12:32 | 53.62461 | 9.98224 | 45 ft | 17 kts | 253° |
| 2026-02-19 12:33 | 53.62411 | 9.98056 | 47 ft | 15 kts | 235° |
| 2026-02-19 12:33 | 53.62347 | 9.97925 | 47 ft | 14 kts | 230° |
| 2026-02-19 12:33 | 53.62290 | 9.97808 | 47 ft | 12 kts | 230° |
| 2026-02-19 12:33 | 53.62220 | 9.97666 | 47 ft | 22 kts | 230° |
| 2026-02-19 12:34 | 53.62174 | 9.97564 | 47 ft | 8 kts | 253° |
| 2026-02-19 12:34 | 53.62182 | 9.97478 | 46 ft | 11 kts | 289° |
| 2026-02-19 12:34 | 53.62271 | 9.97374 | 39 ft | 17 kts | 3° |
| 2026-02-19 12:34 | 53.62347 | 9.97426 | 40 ft | 13 kts | 49° |
| 2026-02-19 12:35 | 53.62551 | 9.97846 | 41 ft | 85 kts | 52° |
| 2026-02-19 12:35 | 53.63057 | 9.98860 | 47 ft | 139 kts | 51° |
| 2026-02-19 12:35 | 53.63723 | 10.00151 | 481 ft | 147 kts | 51° |
| 2026-02-19 12:35 | 53.64446 | 10.01561 | 836 ft | 171 kts | 54° |
| 2026-02-19 12:36 | 53.65238 | 10.03187 | 1329 ft | 188 kts | 56° |
| 2026-02-19 12:36 | 53.66956 | 10.06738 | 2858 ft | 197 kts | 57° |
| 2026-02-19 12:36 | 53.67830 | 10.08536 | 3680 ft | 200 kts | 53° |
| 2026-02-19 12:37 | 53.68964 | 10.09949 | 4527 ft | 211 kts | 26° |
| 2026-02-19 12:37 | 53.70461 | 10.10242 | 4933 ft | 227 kts | 355° |
| 2026-02-19 12:37 | 53.71987 | 10.08909 | 5025 ft | 271 kts | 318° |
| 2026-02-19 12:37 | 53.73109 | 10.06225 | 5122 ft | 290 kts | 302° |
| 2026-02-19 12:38 | 53.74045 | 10.03177 | 6046 ft | 292 kts | 298° |
| 2026-02-19 12:38 | 53.74535 | 10.01004 | 6697 ft | 295 kts | 285° |
| 2026-02-19 12:38 | 53.74738 | 9.97543 | 7579 ft | 299 kts | 268° |
| 2026-02-19 12:38 | 53.74389 | 9.94085 | 8482 ft | 300 kts | 252° |
| 2026-02-19 12:39 | 53.73606 | 9.90812 | 9409 ft | 301 kts | 246° |